Melville, North Dakota
Current Conditions -  °F | °C
As of 2:56 PM on Saturday 22 Nov 2014 (Local Time) from KJMS Reporting Station
Clear Clear  
Wind Chill: 37°   Ceiling: Unl
Heat Index: 43°   Visibility: 10mi
Dew Point: 28°   Wind: 10mph
Humidity: 56%   Direction: 150°SSE
Pressure: 29.38"   Gusts: NA
Location:  47.4573°N, 99.0752°W
Report Text: KJMS 222056Z AUTO 15009KT 10SM CLR 06/M02 A2938 RMK AO2 SLP960 T00611022 56033
Loading
Personal Weather Stations






























Interactive Weather Map New forecast layout! Learn more

10-Day Weather Forecast

Advertisements
Track Severe Weather on mobile